KIAB/IAB METAR and TAF weather

Enter ICAO airport designator
Station Type Date Time Source
KIAB METAR 2019/06/17 13:56 UTC NOAA

KIAB 171356Z AUTO 11004KT 10SM CLR 22/18 A2995 RMK AO2 SLP134 T02180178


Station Type Date Time Source
KIAB Decoded METAR 2019/06/17 13:56 UTC NOAA

McConnell Air Force Base, KS, United States (KIAB) 37-37N 097-16W
Jun 17, 2019 - 09:56 AM EDT / 2019.06.17 1356 UTC
Wind: from the ESE (110 degrees) at 5 MPH (4 KT):0
Visibility: 10 mile(s):0
Sky conditions: clear
Temperature: 71.2 F (21.8 C)
Dew Point: 64.0 F (17.8 C)
Relative Humidity: 78%
Pressure (altimeter): 29.95 in. Hg (1014 hPa)
ob: KIAB 171356Z AUTO 11004KT 10SM CLR 22/18 A2995 RMK AO2 SLP134 T02180178
cycle: 14

Station Type Date Time Source
KIAB TAF 2019/06/17 10:03 UTC NOAA

TAF KIAB 171000Z 1710/1816 VRB06KT 9999 FEW200 QNH2988INS
BECMG 1716/1717 08006KT 9999 FEW050 QNH2990INS
BECMG 1803/1804 18006KT 9999 FEW030 QNH2991INS TX27/1720Z TN17/1711Z

Example: see airport list